Hakuyu Maru — JD3219 — position and weather

sailwx.info

Track history (hours):
 
Tides and Currents Weather Stations Pressure Air Temp Water Temp Dewpoint Dewpoint Depression Visibility Wind Speed Wind Dir Waves Ship Positions

Hakuyu Maru

Last reported at 2016-Jul-12 22:06 UTC. Time now 2016-Aug-30 07:22 UTC.
Position N 35°58' E 140°48'.
Warning: this ship's position is 48 days out of date.

Length 71 m; draft 4.5 m.

Type: Cargo ship. MMSI: 431002761.

Date/timePositionNaut miles runAvg speedWind from/ knotsBaromVisibWave heightAir tempDewpointWater temp
2016-Jul-12 22:06N 35°58' E 140°48'7 9.9
2016-Jul-12 21:23N 35°52' E 140°51'25 8.8
2016-Jul-12 18:32N 35°28' E 140°42'1010.2
2016-Jul-12 17:32N 35°19' E 140°36'2110.5
2016-Jul-12 15:32N 35°04' E 140°18'1010.4
2016-Jul-12 14:33N 34°58' E 140°07'1210.1
2016-Jul-12 13:18N 34°52' E 139°54'7 9.2
2016-Jul-12 12:32N 34°51' E 139°45'238 8.5
2016-Jul-11 08:32N 34°06' E 135°02'11 9.4
2016-Jul-11 07:24N 34°16' E 135°03'9 9.8
2016-Jul-11 06:28N 34°24' E 135°08'18 9.6
2016-Jul-11 04:34N 34°38' E 135°23'5 2.1
2016-Jul-11 02:20N 34°38' E 135°29'0 0.0
2016-Jul-11 01:32N 34°38' E 135°29'0 0.0
2016-Jul-11 00:08N 34°38' E 135°29'0 0.0
2016-Jul-10 23:32N 34°38' E 135°29'1 1.2
2016-Jul-10 22:33N 34°37' E 135°27'6 6.4
2016-Jul-10 21:33N 34°37' E 135°20'0 0.1
2016-Jul-10 20:33N 34°37' E 135°20'0 0.0
2016-Jul-10 19:33N 34°37' E 135°20'0 0.0
2016-Jul-10 18:33N 34°37' E 135°20'0 0.0
2016-Jul-10 17:33N 34°37' E 135°20'0 0.0
2016-Jul-10 16:33N 34°37' E 135°20'0 0.0
2016-Jul-10 15:33N 34°37' E 135°20'0 0.0
2016-Jul-10 14:32N 34°37' E 135°20'0 0.0
2016-Jul-10 13:33N 34°37' E 135°20'0 0.0
2016-Jul-10 12:33N 34°37' E 135°20'0 0.0
2016-Jul-10 11:33N 34°37' E 135°20'0 0.0
2016-Jul-10 10:33N 34°37' E 135°20'0 0.0
2016-Jul-10 09:33N 34°37' E 135°20'0 0.0
2016-Jul-10 08:33N 34°37' E 135°20'0 0.0
2016-Jul-10 07:33N 34°37' E 135°20'0 0.0
2016-Jul-10 06:33N 34°37' E 135°20'0 0.0
2016-Jul-10 05:33N 34°37' E 135°20'0 0.0
2016-Jul-10 04:33N 34°37' E 135°20'0 0.0
2016-Jul-10 03:33N 34°37' E 135°20'0 0.0
2016-Jul-10 02:33N 34°37' E 135°20'1 1.1
2016-Jul-10 01:33N 34°36' E 135°18'1010.4
2016-Jul-10 00:33N 34°35' E 135°06'  
Track history (hours):
 
Tides and Currents Weather Stations Pressure Air Temp Water Temp Dewpoint Dewpoint Depression Visibility Wind Speed Wind Dir Waves Ship Positions

Hakuyu Maru

Last reported at 2016-Jul-12 22:06 UTC. Time now 2016-Aug-30 07:22 UTC.
Position N 35°58' E 140°48'.
Warning: this ship's position is 48 days out of date.

Length 71 m; draft 4.5 m.

Type: Cargo ship. MMSI: 431002761.

Date/timePositionNaut miles runAvg speedWind from/ knotsBaromVisibWave heightAir tempDewpointWater temp
2016-Jul-12 22:06N 35°58' E 140°48'7 9.9
2016-Jul-12 21:23N 35°52' E 140°51'25 8.8
2016-Jul-12 18:32N 35°28' E 140°42'1010.2
2016-Jul-12 17:32N 35°19' E 140°36'2110.5
2016-Jul-12 15:32N 35°04' E 140°18'1010.4
2016-Jul-12 14:33N 34°58' E 140°07'1210.1
2016-Jul-12 13:18N 34°52' E 139°54'7 9.2
2016-Jul-12 12:32N 34°51' E 139°45'238 8.5
2016-Jul-11 08:32N 34°06' E 135°02'11 9.4
2016-Jul-11 07:24N 34°16' E 135°03'9 9.8
2016-Jul-11 06:28N 34°24' E 135°08'18 9.6
2016-Jul-11 04:34N 34°38' E 135°23'5 2.1
2016-Jul-11 02:20N 34°38' E 135°29'0 0.0
2016-Jul-11 01:32N 34°38' E 135°29'0 0.0
2016-Jul-11 00:08N 34°38' E 135°29'0 0.0
2016-Jul-10 23:32N 34°38' E 135°29'1 1.2
2016-Jul-10 22:33N 34°37' E 135°27'6 6.4
2016-Jul-10 21:33N 34°37' E 135°20'0 0.1
2016-Jul-10 20:33N 34°37' E 135°20'0 0.0
2016-Jul-10 19:33N 34°37' E 135°20'0 0.0
2016-Jul-10 18:33N 34°37' E 135°20'0 0.0
2016-Jul-10 17:33N 34°37' E 135°20'0 0.0
2016-Jul-10 16:33N 34°37' E 135°20'0 0.0
2016-Jul-10 15:33N 34°37' E 135°20'0 0.0
2016-Jul-10 14:32N 34°37' E 135°20'0 0.0
2016-Jul-10 13:33N 34°37' E 135°20'0 0.0
2016-Jul-10 12:33N 34°37' E 135°20'0 0.0
2016-Jul-10 11:33N 34°37' E 135°20'0 0.0
2016-Jul-10 10:33N 34°37' E 135°20'0 0.0
2016-Jul-10 09:33N 34°37' E 135°20'0 0.0
2016-Jul-10 08:33N 34°37' E 135°20'0 0.0
2016-Jul-10 07:33N 34°37' E 135°20'0 0.0
2016-Jul-10 06:33N 34°37' E 135°20'0 0.0
2016-Jul-10 05:33N 34°37' E 135°20'0 0.0
2016-Jul-10 04:33N 34°37' E 135°20'0 0.0
2016-Jul-10 03:33N 34°37' E 135°20'0 0.0
2016-Jul-10 02:33N 34°37' E 135°20'1 1.1
2016-Jul-10 01:33N 34°36' E 135°18'1010.4
2016-Jul-10 00:33N 34°35' E 135°06'  

Dump ship's entire track history